Time;durP1;ratioP1;P1;durP2;ratioP2;P2;SDS_P1;SDS_P2;PMS_P1;PMS_P2;Temp;Humidity;BMP_temperature;BMP_pressure;BME280_temperature;BME280_humidity;BME280_pressure;Samples;Min_cycle;Max_cycle;Signal;HPM_P1;HPM_P2
2023/09/23 00:00:50;;;;;;;1.45;1.00;;;10.50;99.90;;;;;;2071392;28;20780;-81
2023/09/23 00:01:50;;;;;;;1.17;0.97;;;10.50;99.90;;;;;;2072107;28;20233;-82
2023/09/23 00:02:51;;;;;;;1.20;1.10;;;10.30;99.90;;;;;;2072051;28;20229;-80
2023/09/23 00:03:52;;;;;;;1.50;1.00;;;10.30;99.90;;;;;;2071931;28;20217;-82
2023/09/23 00:04:53;;;;;;;2.73;1.23;;;10.30;99.90;;;;;;2072017;28;20260;-82
2023/09/23 00:05:54;;;;;;;1.00;0.95;;;10.30;99.90;;;;;;2072242;28;20228;-81
2023/09/23 00:06:55;;;;;;;1.70;1.00;;;10.30;99.90;;;;;;2071558;28;20891;-81
2023/09/23 00:07:56;;;;;;;1.90;1.20;;;10.40;99.90;;;;;;2071377;28;20296;-81
2023/09/23 00:08:57;;;;;;;2.13;1.20;;;10.60;99.90;;;;;;2071179;28;20214;-81
2023/09/23 00:09:58;;;;;;;1.70;1.10;;;10.60;99.90;;;;;;2070828;28;20225;-82
2023/09/23 00:10:58;;;;;;;1.07;0.97;;;10.70;99.90;;;;;;2071530;28;20218;-81
2023/09/23 00:11:59;;;;;;;1.67;1.10;;;10.70;99.90;;;;;;2070760;28;20709;-81
2023/09/23 00:13:00;;;;;;;1.33;1.23;;;10.60;99.90;;;;;;2071367;28;20218;-80
2023/09/23 00:14:01;;;;;;;1.40;1.07;;;10.50;99.90;;;;;;2071739;28;20301;-79
2023/09/23 00:15:03;;;;;;;1.17;1.07;;;10.50;99.90;;;;;;2071988;28;20213;-81
2023/09/23 00:16:16;;;;;;;1.08;0.98;;;10.40;99.90;;;;;;2069465;28;20619;-80
2023/09/23 00:17:17;;;;;;;1.10;0.82;;;10.50;99.90;;;;;;2068824;28;20260;-81
2023/09/23 00:18:17;;;;;;;1.50;0.90;;;10.40;99.90;;;;;;2070913;28;20244;-81
2023/09/23 00:19:18;;;;;;;1.53;1.00;;;10.20;99.90;;;;;;2070874;28;20228;-80
2023/09/23 00:20:19;;;;;;;2.13;1.00;;;10.00;99.90;;;;;;2070869;28;20182;-81
2023/09/23 00:21:19;;;;;;;0.97;0.90;;;10.00;99.90;;;;;;2062632;28;20703;-80
2023/09/23 00:22:21;;;;;;;1.63;1.00;;;9.90;99.90;;;;;;2062755;28;20289;-79
2023/09/23 00:23:21;;;;;;;2.35;1.00;;;9.90;99.90;;;;;;2062287;28;20286;-81
2023/09/23 00:24:23;;;;;;;0.90;0.80;;;9.90;99.90;;;;;;2070543;28;20240;-80
2023/09/23 00:25:24;;;;;;;2.30;0.98;;;9.90;99.90;;;;;;2071373;28;20229;-80
2023/09/23 00:26:26;;;;;;;1.73;1.00;;;9.90;99.90;;;;;;2070668;28;20310;-82
2023/09/23 00:27:27;;;;;;;0.90;0.90;;;9.90;99.90;;;;;;2070927;28;20533;-82
2023/09/23 00:28:28;;;;;;;1.47;0.80;;;9.90;99.90;;;;;;2071154;28;20220;-81
2023/09/23 00:29:30;;;;;;;1.17;1.00;;;10.00;99.90;;;;;;2071288;28;20225;-81
2023/09/23 00:30:32;;;;;;;1.48;0.90;;;10.00;99.90;;;;;;2072375;28;20225;-80
2023/09/23 00:31:33;;;;;;;1.20;1.10;;;9.90;99.90;;;;;;2076629;28;20240;-81
2023/09/23 00:32:34;;;;;;;1.10;1.00;;;9.90;99.90;;;;;;2077140;28;20224;-79
2023/09/23 00:33:37;;;;;;;1.00;0.80;;;9.90;99.90;;;;;;2078186;28;20243;-80
2023/09/23 00:34:39;;;;;;;1.15;0.95;;;9.80;99.90;;;;;;2075626;28;20831;-81
2023/09/23 00:35:40;;;;;;;1.60;1.15;;;9.80;99.90;;;;;;2071576;28;20229;-81
2023/09/23 00:36:41;;;;;;;1.92;1.00;;;9.80;99.90;;;;;;2071202;28;20225;-82
2023/09/23 00:37:42;;;;;;;1.40;0.87;;;9.80;99.90;;;;;;2055519;28;20611;-81
2023/09/23 00:38:43;;;;;;;1.37;0.90;;;9.90;99.90;;;;;;2055125;28;20265;-82
2023/09/23 00:39:44;;;;;;;1.13;0.97;;;9.90;99.90;;;;;;2070972;28;20796;-82
2023/09/23 00:40:45;;;;;;;1.73;0.90;;;9.90;99.90;;;;;;2071130;28;20320;-82
2023/09/23 00:41:45;;;;;;;2.47;0.90;;;9.90;99.90;;;;;;2071027;28;20244;-82
2023/09/23 00:42:47;;;;;;;1.63;1.10;;;9.90;99.90;;;;;;2071219;28;20330;-81
2023/09/23 00:43:48;;;;;;;1.17;1.00;;;9.90;99.90;;;;;;2063177;28;20230;-81
2023/09/23 00:44:50;;;;;;;1.53;0.97;;;9.90;99.90;;;;;;2071791;28;20229;-82
2023/09/23 00:45:54;;;;;;;1.50;1.00;;;9.90;99.90;;;;;;2065120;28;20272;-81
2023/09/23 00:46:55;;;;;;;1.10;0.90;;;9.90;99.90;;;;;;2072169;28;20229;-82
2023/09/23 00:47:56;;;;;;;1.27;1.03;;;9.90;99.90;;;;;;2073181;28;20225;-82
2023/09/23 00:48:59;;;;;;;1.02;0.93;;;10.00;99.90;;;;;;2072838;28;20339;-82
2023/09/23 00:50:22;;;;;;;0.90;0.90;;;10.00;99.90;;;;;;2072308;28;20209;-81
2023/09/23 00:51:21;;;;;;;3.80;1.17;;;10.00;99.90;;;;;;2072080;28;20240;-81
2023/09/23 00:52:22;;;;;;;2.10;1.10;;;9.90;99.90;;;;;;2073685;28;20248;-82
2023/09/23 00:53:25;;;;;;;1.60;1.00;;;9.90;99.90;;;;;;2072422;28;20265;-82
2023/09/23 00:54:25;;;;;;;1.50;1.10;;;10.00;99.90;;;;;;2072548;28;20485;-81
2023/09/23 00:55:30;;;;;;;1.20;1.00;;;9.90;99.90;;;;;;2072468;28;20231;-80
2023/09/23 00:56:31;;;;;;;1.10;1.00;;;10.00;99.90;;;;;;2072519;28;20598;-82
2023/09/23 00:57:33;;;;;;;1.77;1.10;;;10.00;99.90;;;;;;2072486;28;20324;-82
2023/09/23 00:58:37;;;;;;;2.65;1.20;;;10.00;99.90;;;;;;2072423;28;20354;-80
2023/09/23 00:59:40;;;;;;;1.10;1.00;;;10.00;99.90;;;;;;2072598;28;20283;-81
2023/09/23 01:00:43;;;;;;;1.30;1.00;;;9.90;99.90;;;;;;2072806;28;20833;-82
2023/09/23 01:01:44;;;;;;;1.25;1.10;;;9.80;99.90;;;;;;2066848;28;20234;-82
2023/09/23 01:02:47;;;;;;;2.17;1.17;;;9.70;99.90;;;;;;2063616;28;20584;-81
2023/09/23 01:03:47;;;;;;;1.45;1.13;;;9.70;99.90;;;;;;2076605;28;20232;-80
2023/09/23 01:04:50;;;;;;;0.93;0.93;;;9.70;99.90;;;;;;2075131;28;20228;-80
2023/09/23 01:06:05;;;;;;;2.03;1.25;;;9.70;99.90;;;;;;2081391;28;20245;-81
2023/09/23 01:07:05;;;;;;;1.75;1.10;;;9.60;99.90;;;;;;2071420;28;20209;-80
2023/09/23 01:08:22;;;;;;;0.83;0.83;;;9.50;99.90;;;;;;2073111;28;20807;-81
2023/09/23 01:09:23;;;;;;;1.10;1.00;;;9.50;99.90;;;;;;2072957;28;20290;-80
2023/09/23 01:10:24;;;;;;;1.10;1.00;;;9.30;99.90;;;;;;2071655;28;20299;-80
2023/09/23 01:11:27;;;;;;;3.35;1.20;;;9.30;99.90;;;;;;2071934;28;20254;-81
2023/09/23 01:12:27;;;;;;;1.00;0.93;;;9.30;99.90;;;;;;2072578;28;20228;-81
2023/09/23 01:13:30;;;;;;;1.43;1.00;;;9.20;99.90;;;;;;2071666;28;20264;-81
2023/09/23 01:14:31;;;;;;;1.10;1.00;;;9.20;99.90;;;;;;2072547;28;20231;-82
2023/09/23 01:15:34;;;;;;;1.20;1.10;;;9.20;99.90;;;;;;2072379;28;20726;-82
2023/09/23 01:16:35;;;;;;;1.63;1.20;;;9.10;99.90;;;;;;2071777;28;20714;-82
2023/09/23 01:17:36;;;;;;;1.90;1.10;;;9.10;99.90;;;;;;2063325;28;20217;-81
2023/09/23 01:18:36;;;;;;;1.80;1.13;;;9.00;99.90;;;;;;2072105;28;20840;-80
2023/09/23 01:19:37;;;;;;;1.10;1.00;;;9.00;99.90;;;;;;2074374;28;20732;-79
2023/09/23 01:20:37;;;;;;;1.20;1.10;;;8.90;99.90;;;;;;2075575;28;20232;-79
2023/09/23 01:21:38;;;;;;;1.50;1.23;;;9.00;99.90;;;;;;2075264;28;20737;-81
2023/09/23 01:22:39;;;;;;;2.10;1.17;;;8.90;99.90;;;;;;2064674;28;20239;-81
2023/09/23 01:23:43;;;;;;;2.45;1.27;;;8.90;99.90;;;;;;2072981;28;20320;-81
2023/09/23 01:24:45;;;;;;;1.45;1.17;;;8.80;99.90;;;;;;2079834;28;20274;-81
2023/09/23 01:25:45;;;;;;;1.85;1.30;;;8.90;99.90;;;;;;2072012;28;20259;-81
2023/09/23 01:26:51;;;;;;;1.47;1.37;;;8.90;99.90;;;;;;2072737;28;20346;-81
2023/09/23 01:27:53;;;;;;;2.33;1.40;;;8.90;99.90;;;;;;2073018;28;20235;-81
2023/09/23 01:28:54;;;;;;;1.90;1.20;;;9.00;99.90;;;;;;2072782;28;20229;-80
2023/09/23 01:29:56;;;;;;;2.42;1.50;;;9.00;99.90;;;;;;2072650;28;20244;-81
2023/09/23 01:30:57;;;;;;;2.17;1.20;;;9.00;99.90;;;;;;2071904;28;20228;-81
2023/09/23 01:32:11;;;;;;;1.63;1.40;;;9.00;99.90;;;;;;2071881;28;20221;-82
2023/09/23 01:33:15;;;;;;;1.20;1.10;;;9.00;99.90;;;;;;2062583;28;20307;-82
2023/09/23 01:34:16;;;;;;;3.13;1.30;;;9.00;99.90;;;;;;2072266;28;20188;-81
2023/09/23 01:35:17;;;;;;;2.17;1.10;;;8.90;99.90;;;;;;2071855;28;20182;-80
2023/09/23 01:36:18;;;;;;;1.52;1.42;;;8.90;99.90;;;;;;2072449;28;20187;-82
2023/09/23 01:37:19;;;;;;;3.83;1.30;;;8.90;99.90;;;;;;2072657;28;20185;-80
2023/09/23 01:38:20;;;;;;;2.20;1.30;;;8.80;99.90;;;;;;2072076;28;20185;-80
2023/09/23 01:39:22;;;;;;;1.40;1.30;;;8.80;99.90;;;;;;2071654;28;20200;-81
2023/09/23 01:40:24;;;;;;;2.78;1.42;;;8.80;99.90;;;;;;2080070;28;20288;-82
2023/09/23 01:41:25;;;;;;;2.47;1.83;;;8.80;99.90;;;;;;2080195;28;20606;-81
2023/09/23 01:42:28;;;;;;;1.30;1.10;;;8.80;99.90;;;;;;2080401;28;20235;-81
2023/09/23 01:43:29;;;;;;;1.40;1.25;;;8.80;99.90;;;;;;2071802;28;20311;-81
2023/09/23 01:44:30;;;;;;;1.33;1.23;;;8.80;99.90;;;;;;2072533;28;20264;-81
2023/09/23 01:45:31;;;;;;;1.60;1.37;;;8.80;99.90;;;;;;2063478;28;20225;-82
2023/09/23 01:46:33;;;;;;;1.75;1.33;;;8.80;99.90;;;;;;2063773;28;20239;-82
2023/09/23 01:47:33;;;;;;;1.95;1.38;;;8.70;99.90;;;;;;2071694;28;20661;-81
2023/09/23 01:48:34;;;;;;;1.77;1.20;;;8.60;99.90;;;;;;2071875;28;20234;-81
2023/09/23 01:49:35;;;;;;;2.20;1.30;;;8.60;99.90;;;;;;2071793;28;20848;-82
2023/09/23 01:50:35;;;;;;;1.27;1.17;;;8.70;99.90;;;;;;2071795;28;20222;-81
2023/09/23 01:51:36;;;;;;;2.10;1.17;;;8.70;99.90;;;;;;2072229;28;20285;-82
2023/09/23 01:52:40;;;;;;;1.97;1.60;;;8.60;99.90;;;;;;2075384;28;20232;-82
2023/09/23 01:53:41;;;;;;;2.30;1.40;;;8.60;99.90;;;;;;2072141;28;20235;-81
2023/09/23 01:54:44;;;;;;;2.03;1.40;;;8.50;99.90;;;;;;2069289;28;20315;-82
2023/09/23 01:55:45;;;;;;;1.83;1.60;;;8.30;99.90;;;;;;2072066;28;20291;-81
2023/09/23 01:56:45;;;;;;;2.22;1.52;;;8.30;99.90;;;;;;2072659;28;20235;-81
2023/09/23 01:57:49;;;;;;;1.47;1.33;;;8.30;99.90;;;;;;2072788;28;20229;-82
2023/09/23 01:58:49;;;;;;;1.50;1.40;;;8.20;99.90;;;;;;2072302;28;20239;-82
2023/09/23 01:59:50;;;;;;;1.60;1.40;;;8.10;99.90;;;;;;2071680;28;20348;-82
2023/09/23 02:00:55;;;;;;;1.43;1.30;;;8.20;99.90;;;;;;2071687;28;20279;-82
2023/09/23 02:01:56;;;;;;;1.38;1.27;;;8.10;99.90;;;;;;2070759;28;20596;-81
2023/09/23 02:02:57;;;;;;;1.73;1.40;;;8.10;99.90;;;;;;2064273;28;20239;-81
2023/09/23 02:03:58;;;;;;;1.83;1.33;;;8.10;99.90;;;;;;2055697;28;20727;-81
2023/09/23 02:04:59;;;;;;;2.50;1.30;;;8.00;99.90;;;;;;2056222;28;20215;-82
2023/09/23 02:06:00;;;;;;;1.80;1.48;;;8.10;99.90;;;;;;2063483;28;20474;-82
2023/09/23 02:07:00;;;;;;;2.10;1.60;;;8.10;99.90;;;;;;2065114;28;20248;-81
2023/09/23 02:08:01;;;;;;;2.53;1.40;;;8.10;99.90;;;;;;2076585;28;20203;-79
2023/09/23 02:09:01;;;;;;;1.60;1.30;;;8.10;99.90;;;;;;2082287;28;20263;-80
2023/09/23 02:10:02;;;;;;;2.63;1.43;;;8.10;99.90;;;;;;2080201;28;20276;-80
2023/09/23 02:11:03;;;;;;;2.47;1.37;;;8.00;99.90;;;;;;2062635;28;20240;-80
2023/09/23 02:12:04;;;;;;;1.60;1.50;;;8.00;99.90;;;;;;2072178;28;20202;-81
2023/09/23 02:13:05;;;;;;;1.42;1.30;;;8.10;99.90;;;;;;2072964;28;20186;-80
2023/09/23 02:14:05;;;;;;;4.40;1.83;;;8.10;99.90;;;;;;2073072;28;20267;-80
2023/09/23 02:15:06;;;;;;;1.50;1.40;;;8.10;99.90;;;;;;2072520;28;20190;-80
2023/09/23 02:16:07;;;;;;;2.60;1.53;;;8.10;99.90;;;;;;2072750;28;20211;-82
2023/09/23 02:17:08;;;;;;;1.57;1.43;;;8.10;99.90;;;;;;2071858;28;20329;-79
2023/09/23 02:18:08;;;;;;;1.58;1.38;;;8.00;99.90;;;;;;2072849;28;20184;-81
2023/09/23 02:19:09;;;;;;;1.50;1.40;;;8.10;99.90;;;;;;2071900;28;20714;-81
2023/09/23 02:20:21;;;;;;;2.17;1.70;;;8.10;99.90;;;;;;2064215;28;20179;-80
2023/09/23 02:21:22;;;;;;;1.60;1.50;;;8.10;99.90;;;;;;2070060;28;20197;-81
2023/09/23 02:22:22;;;;;;;2.50;1.30;;;8.20;99.90;;;;;;2072163;28;20296;-82
2023/09/23 02:23:23;;;;;;;1.30;1.20;;;8.20;99.90;;;;;;2071658;28;20330;-81
2023/09/23 02:24:23;;;;;;;1.67;1.47;;;8.20;99.90;;;;;;2072269;28;20391;-80
2023/09/23 02:25:24;;;;;;;4.30;1.30;;;8.10;99.90;;;;;;2072673;28;20229;-80
2023/09/23 02:26:25;;;;;;;2.90;1.40;;;8.00;99.90;;;;;;2073394;28;20598;-80
2023/09/23 02:27:26;;;;;;;1.63;1.30;;;8.00;99.90;;;;;;2072397;28;20240;-80
2023/09/23 02:28:26;;;;;;;1.53;1.33;;;7.90;99.90;;;;;;2060333;28;20245;-81
2023/09/23 02:29:27;;;;;;;1.97;1.30;;;7.90;99.90;;;;;;2063940;28;20252;-81
2023/09/23 02:30:27;;;;;;;3.87;1.90;;;7.90;99.90;;;;;;2064511;28;20278;-81
2023/09/23 02:31:28;;;;;;;4.67;1.67;;;7.90;99.90;;;;;;2071969;28;20633;-80
2023/09/23 02:32:29;;;;;;;2.60;1.80;;;7.90;99.90;;;;;;2072315;28;20230;-81
2023/09/23 02:33:30;;;;;;;1.60;1.40;;;7.80;99.90;;;;;;2060591;28;20223;-81
2023/09/23 02:34:30;;;;;;;1.80;1.63;;;7.80;99.90;;;;;;2065656;28;20226;-82
2023/09/23 02:35:31;;;;;;;3.30;1.50;;;7.90;99.90;;;;;;2065763;28;20599;-82
2023/09/23 02:36:34;;;;;;;2.43;1.50;;;7.90;99.90;;;;;;2072166;28;20334;-81
2023/09/23 02:37:35;;;;;;;1.58;1.48;;;8.00;99.90;;;;;;2072474;28;20263;-82
2023/09/23 02:38:35;;;;;;;6.03;2.00;;;8.00;99.90;;;;;;2073570;28;20246;-80
2023/09/23 02:39:36;;;;;;;2.47;1.67;;;8.10;99.90;;;;;;2073396;28;20226;-81
2023/09/23 02:40:40;;;;;;;2.03;1.83;;;8.00;99.90;;;;;;2073868;28;20233;-80
2023/09/23 02:41:41;;;;;;;2.63;1.77;;;8.00;99.90;;;;;;2072652;28;20229;-81
2023/09/23 02:42:43;;;;;;;3.07;1.80;;;8.00;99.90;;;;;;2072479;28;20331;-81
2023/09/23 02:43:44;;;;;;;2.33;2.13;;;8.00;99.90;;;;;;2072869;28;20834;-82
2023/09/23 02:44:45;;;;;;;2.80;2.10;;;8.00;99.90;;;;;;2072179;28;20240;-82
2023/09/23 02:45:49;;;;;;;2.22;2.00;;;8.00;99.90;;;;;;2063924;28;20258;-82
2023/09/23 02:46:52;;;;;;;1.92;1.70;;;7.90;99.90;;;;;;2072543;28;20245;-82
2023/09/23 02:47:53;;;;;;;1.70;1.60;;;7.90;99.90;;;;;;2072632;28;20275;-82
2023/09/23 02:48:54;;;;;;;4.40;1.63;;;8.00;99.90;;;;;;2071843;28;20734;-80
2023/09/23 02:49:55;;;;;;;2.10;1.90;;;8.20;99.90;;;;;;2063018;28;20222;-82
2023/09/23 02:50:58;;;;;;;3.67;1.70;;;8.00;99.90;;;;;;2065030;28;20234;-83
2023/09/23 02:51:59;;;;;;;2.55;1.50;;;8.00;99.90;;;;;;2072180;28;20595;-83
2023/09/23 02:53:00;;;;;;;2.20;1.67;;;8.00;99.90;;;;;;2072668;28;20232;-82
2023/09/23 02:54:00;;;;;;;2.13;1.87;;;8.00;99.90;;;;;;2072542;28;20686;-81
2023/09/23 02:55:01;;;;;;;2.27;1.87;;;8.00;99.90;;;;;;2071958;28;20345;-81
2023/09/23 02:56:06;;;;;;;3.43;2.07;;;8.00;99.90;;;;;;2064484;28;20283;-82
2023/09/23 02:57:12;;;;;;;1.63;1.52;;;8.00;99.90;;;;;;2067991;28;20206;-80
2023/09/23 02:58:12;;;;;;;2.53;1.85;;;8.00;99.90;;;;;;2073819;28;20209;-80
2023/09/23 02:59:15;;;;;;;1.87;1.67;;;8.00;99.90;;;;;;2068938;28;20202;-81
2023/09/23 03:00:17;;;;;;;1.92;1.75;;;7.80;99.90;;;;;;2072890;28;20186;-82
2023/09/23 03:01:18;;;;;;;2.10;1.90;;;7.70;99.90;;;;;;2072799;28;20198;-82
2023/09/23 03:02:24;;;;;;;2.90;1.77;;;7.70;99.90;;;;;;2072761;28;20193;-82
2023/09/23 03:03:25;;;;;;;2.10;1.77;;;7.70;99.90;;;;;;2063479;28;20687;-81
2023/09/23 03:04:28;;;;;;;2.33;2.00;;;7.60;99.90;;;;;;2064302;28;20238;-81
2023/09/23 03:05:29;;;;;;;1.67;1.58;;;7.50;99.90;;;;;;2065092;28;20233;-81
2023/09/23 03:06:30;;;;;;;1.65;1.40;;;7.30;99.90;;;;;;2064168;28;20230;-82
2023/09/23 03:07:33;;;;;;;3.03;1.90;;;7.20;99.90;;;;;;2071752;28;20229;-82
2023/09/23 03:08:37;;;;;;;2.05;1.70;;;7.20;99.90;;;;;;2071966;28;20279;-82
2023/09/23 03:09:43;;;;;;;1.55;1.45;;;7.20;99.90;;;;;;2072092;28;20689;-82
2023/09/23 03:10:46;;;;;;;3.03;1.65;;;7.20;99.90;;;;;;2072310;28;20233;-82
2023/09/23 03:11:55;;;;;;;1.95;1.60;;;7.10;99.90;;;;;;2072674;28;20264;-81
2023/09/23 03:13:02;;;;;;;1.80;1.70;;;7.10;99.90;;;;;;2072202;28;20225;-82
2023/09/23 03:14:03;;;;;;;1.95;1.70;;;7.10;99.90;;;;;;2070909;28;20297;-80
2023/09/23 03:15:14;;;;;;;3.42;1.75;;;7.20;99.90;;;;;;2072579;28;20190;-82
2023/09/23 03:16:18;;;;;;;1.70;1.60;;;7.20;99.90;;;;;;2073353;28;20206;-80
2023/09/23 03:17:22;;;;;;;1.92;1.73;;;7.30;99.90;;;;;;2075376;28;20178;-80
2023/09/23 03:18:33;;;;;;;3.50;2.10;;;7.40;99.90;;;;;;2073964;28;21749;-82
2023/09/23 03:19:34;;;;;;;3.38;2.25;;;7.30;99.90;;;;;;2072934;28;20236;-81
2023/09/23 03:20:36;;;;;;;2.25;1.60;;;7.40;99.90;;;;;;2073069;28;20291;-82
2023/09/23 03:21:41;;;;;;;1.73;1.58;;;7.50;99.90;;;;;;2073222;28;20253;-82
2023/09/23 03:22:41;;;;;;;2.97;1.70;;;7.40;99.90;;;;;;2073023;28;20253;-82
2023/09/23 03:23:42;;;;;;;2.50;2.00;;;7.30;99.90;;;;;;2064336;28;20253;-82
2023/09/23 03:24:46;;;;;;;15.17;3.20;;;7.30;99.90;;;;;;2072907;28;20232;-80
2023/09/23 03:25:47;;;;;;;4.00;2.70;;;7.30;99.90;;;;;;2072344;28;20230;-82
2023/09/23 03:26:54;;;;;;;3.42;2.70;;;7.20;99.90;;;;;;2072339;28;20225;-82
2023/09/23 03:27:55;;;;;;;3.20;2.78;;;7.30;99.90;;;;;;2072266;28;20722;-82
2023/09/23 03:28:57;;;;;;;2.45;2.25;;;7.30;99.90;;;;;;2080356;28;20303;-81
2023/09/23 03:30:00;;;;;;;2.88;2.20;;;7.30;99.90;;;;;;2080696;28;20237;-81
2023/09/23 03:31:02;;;;;;;8.10;2.80;;;7.30;99.90;;;;;;2081529;28;20237;-80
2023/09/23 03:32:03;;;;;;;2.97;2.63;;;7.30;99.90;;;;;;2080915;28;20205;-79
2023/09/23 03:33:04;;;;;;;2.87;2.20;;;7.40;99.90;;;;;;2080775;28;20174;-80
2023/09/23 03:34:05;;;;;;;3.37;2.23;;;7.40;99.90;;;;;;2081961;28;20228;-80
2023/09/23 03:35:13;;;;;;;3.08;2.10;;;7.40;99.90;;;;;;2080914;28;20192;-80
2023/09/23 03:36:15;;;;;;;2.95;2.00;;;7.30;99.90;;;;;;2081067;28;20185;-81
2023/09/23 03:37:16;;;;;;;2.10;1.92;;;7.30;99.90;;;;;;2080919;28;20220;-80
2023/09/23 03:38:17;;;;;;;2.30;2.10;;;7.30;99.90;;;;;;2080629;28;20185;-81
2023/09/23 03:39:19;;;;;;;2.55;1.90;;;7.30;99.90;;;;;;2079709;28;20184;-80
2023/09/23 03:40:24;;;;;;;2.38;2.00;;;7.30;99.90;;;;;;2079145;28;20194;-80
2023/09/23 03:41:24;;;;;;;1.77;1.65;;;7.40;99.90;;;;;;2078915;28;20340;-81
2023/09/23 03:42:26;;;;;;;2.50;1.80;;;7.50;99.90;;;;;;2077893;28;20557;-80
2023/09/23 03:43:27;;;;;;;2.00;1.85;;;7.50;99.90;;;;;;2087305;28;20225;-80
2023/09/23 03:44:27;;;;;;;3.03;1.97;;;7.60;99.90;;;;;;2089389;28;20310;-80
2023/09/23 03:45:33;;;;;;;2.97;1.80;;;7.60;99.90;;;;;;2081291;28;20466;-81
2023/09/23 03:46:34;;;;;;;2.25;2.03;;;7.60;99.90;;;;;;2074352;28;20264;-82
2023/09/23 03:47:36;;;;;;;2.00;1.80;;;7.50;99.90;;;;;;2071796;28;20651;-83
2023/09/23 03:48:37;;;;;;;3.25;1.80;;;7.60;99.90;;;;;;2070926;28;20474;-81
2023/09/23 03:49:38;;;;;;;2.50;1.93;;;7.60;99.90;;;;;;2063622;28;20309;-81
2023/09/23 03:50:38;;;;;;;2.50;1.80;;;7.70;99.90;;;;;;2067381;28;20315;-82
2023/09/23 03:51:39;;;;;;;1.73;1.40;;;7.80;99.90;;;;;;2062649;28;20234;-81
2023/09/23 03:52:44;;;;;;;2.00;1.67;;;7.90;99.90;;;;;;2059847;28;20295;-82
2023/09/23 03:53:45;;;;;;;1.80;1.70;;;7.90;99.90;;;;;;2070908;28;20231;-83
2023/09/23 03:54:45;;;;;;;1.60;1.50;;;8.00;99.90;;;;;;2071964;28;20229;-82
2023/09/23 03:55:46;;;;;;;3.73;1.80;;;8.10;99.90;;;;;;2071503;28;20327;-82
2023/09/23 03:56:46;;;;;;;1.97;1.77;;;7.90;99.90;;;;;;2062489;28;20317;-81
2023/09/23 03:57:47;;;;;;;3.03;1.60;;;7.80;99.90;;;;;;2063336;28;20320;-82
2023/09/23 03:58:47;;;;;;;2.40;2.10;;;7.70;99.90;;;;;;2070834;28;20674;-82
2023/09/23 03:59:49;;;;;;;2.00;1.73;;;7.80;99.90;;;;;;2078995;28;20353;-82
2023/09/23 04:00:50;;;;;;;4.93;1.90;;;7.80;99.90;;;;;;2071639;28;20737;-82
2023/09/23 04:01:51;;;;;;;2.00;1.80;;;7.80;99.90;;;;;;2071395;28;20267;-82
2023/09/23 04:02:52;;;;;;;2.70;2.00;;;7.90;99.90;;;;;;2071141;28;20225;-81
2023/09/23 04:03:53;;;;;;;2.83;1.70;;;7.90;99.90;;;;;;2070883;28;20257;-82
2023/09/23 04:04:53;;;;;;;2.00;1.80;;;7.90;99.90;;;;;;2071332;28;20225;-80
2023/09/23 04:05:58;;;;;;;2.70;2.00;;;7.80;99.90;;;;;;2072154;28;20236;-81
2023/09/23 04:06:58;;;;;;;2.70;1.80;;;7.80;99.90;;;;;;2071937;28;20224;-82
2023/09/23 04:07:59;;;;;;;2.83;1.80;;;7.80;99.90;;;;;;2071026;28;20253;-82
2023/09/23 04:09:00;;;;;;;2.10;1.90;;;7.80;99.90;;;;;;2063907;28;20277;-81
2023/09/23 04:10:00;;;;;;;1.93;1.60;;;7.70;99.90;;;;;;2070483;28;20223;-81
2023/09/23 04:11:09;;;;;;;1.80;1.70;;;7.80;99.90;;;;;;2070598;28;20696;-81
2023/09/23 04:12:09;;;;;;;2.75;2.00;;;7.80;99.90;;;;;;2066671;28;20213;-80
2023/09/23 04:13:10;;;;;;;3.67;2.73;;;7.80;99.90;;;;;;2070971;28;20568;-80
2023/09/23 04:14:11;;;;;;;2.87;2.20;;;7.80;99.90;;;;;;2070470;28;20236;-82
2023/09/23 04:15:12;;;;;;;3.38;2.08;;;7.80;99.90;;;;;;2071423;28;20217;-81
2023/09/23 04:16:13;;;;;;;1.98;1.77;;;7.80;99.90;;;;;;2071301;28;20182;-81
2023/09/23 04:17:14;;;;;;;2.63;2.33;;;7.90;99.90;;;;;;2071701;28;20731;-82
2023/09/23 04:18:15;;;;;;;5.30;4.72;;;7.80;99.90;;;;;;2071566;28;20273;-81
2023/09/23 04:19:16;;;;;;;11.23;8.83;;;7.70;99.90;;;;;;2069897;28;20588;-81
2023/09/23 04:20:17;;;;;;;12.70;9.53;;;7.60;99.90;;;;;;2071081;28;20204;-81
2023/09/23 04:21:20;;;;;;;12.93;9.85;;;7.50;99.90;;;;;;2071770;28;20913;-82
2023/09/23 04:22:21;;;;;;;13.85;11.20;;;7.50;99.90;;;;;;2072069;28;20181;-81
2023/09/23 04:23:21;;;;;;;11.43;9.27;;;7.50;99.90;;;;;;2071879;28;20603;-82
2023/09/23 04:24:22;;;;;;;9.43;7.77;;;7.50;99.90;;;;;;2071949;28;20209;-81
2023/09/23 04:25:22;;;;;;;8.53;6.70;;;7.40;99.90;;;;;;2071050;28;20809;-81
2023/09/23 04:26:24;;;;;;;7.03;5.63;;;7.40;99.90;;;;;;2071059;28;20660;-82
2023/09/23 04:27:26;;;;;;;7.22;5.38;;;7.30;99.90;;;;;;2062310;28;20257;-81
2023/09/23 04:28:27;;;;;;;7.57;5.38;;;7.40;99.90;;;;;;2070344;28;20272;-81
2023/09/23 04:29:30;;;;;;;4.87;4.23;;;7.40;99.90;;;;;;2070587;28;20236;-81
2023/09/23 04:30:30;;;;;;;4.63;3.90;;;7.40;99.90;;;;;;2071594;28;20225;-81
2023/09/23 04:31:31;;;;;;;4.70;3.53;;;7.40;99.90;;;;;;2070877;28;20225;-82
2023/09/23 04:32:31;;;;;;;5.53;4.20;;;7.40;99.90;;;;;;2071503;28;20256;-81
2023/09/23 04:33:32;;;;;;;6.27;5.17;;;7.50;99.90;;;;;;2071556;28;20702;-81
2023/09/23 04:34:35;;;;;;;5.67;4.13;;;7.40;99.90;;;;;;2071126;28;20645;-81
2023/09/23 04:35:36;;;;;;;5.40;4.05;;;7.50;99.90;;;;;;2078490;28;20221;-81
2023/09/23 04:36:36;;;;;;;6.10;4.30;;;7.60;99.90;;;;;;2071273;28;20229;-81
2023/09/23 04:37:37;;;;;;;4.90;4.40;;;7.60;99.90;;;;;;2067100;28;20264;-81
2023/09/23 04:38:38;;;;;;;4.73;3.63;;;7.60;99.90;;;;;;2068574;28;20331;-80
2023/09/23 04:39:39;;;;;;;4.27;3.53;;;7.60;99.90;;;;;;2070604;28;20721;-79
2023/09/23 04:40:39;;;;;;;10.23;8.13;;;7.60;99.90;;;;;;2070740;28;20241;-81
2023/09/23 04:41:41;;;;;;;7.20;6.30;;;7.50;99.90;;;;;;2070955;28;20241;-81
2023/09/23 04:42:42;;;;;;;6.78;5.90;;;7.60;99.90;;;;;;2071291;28;20276;-80
2023/09/23 04:43:43;;;;;;;5.82;5.03;;;7.60;99.90;;;;;;2068412;28;20272;-80
2023/09/23 04:44:44;;;;;;;5.20;4.45;;;7.60;99.90;;;;;;2071169;28;20242;-80
2023/09/23 04:45:45;;;;;;;7.23;4.40;;;7.60;99.90;;;;;;2070930;28;20718;-81
2023/09/23 04:46:46;;;;;;;5.30;4.77;;;7.50;99.90;;;;;;2071654;28;20281;-81
2023/09/23 04:47:50;;;;;;;5.30;4.25;;;7.40;99.90;;;;;;2061332;28;20237;-81
2023/09/23 04:48:51;;;;;;;3.88;3.55;;;7.30;99.90;;;;;;2062959;28;20230;-81
2023/09/23 04:49:51;;;;;;;3.40;2.83;;;7.30;99.90;;;;;;2068496;28;20230;-79
2023/09/23 04:50:55;;;;;;;3.00;2.70;;;7.30;99.90;;;;;;2081592;28;20230;-78
2023/09/23 04:51:56;;;;;;;3.08;2.78;;;7.40;99.90;;;;;;2079190;28;20269;-81
2023/09/23 04:52:56;;;;;;;3.20;2.77;;;7.20;99.90;;;;;;2071021;28;20225;-81
2023/09/23 04:53:57;;;;;;;3.00;2.63;;;7.20;99.90;;;;;;2063671;28;20237;-81
2023/09/23 04:54:58;;;;;;;2.53;2.23;;;7.20;99.90;;;;;;2070858;28;20748;-81
2023/09/23 04:55:59;;;;;;;2.30;2.10;;;7.20;99.90;;;;;;2070262;28;20319;-80
2023/09/23 04:57:02;;;;;;;2.67;2.10;;;7.30;99.90;;;;;;2070715;28;20285;-80
2023/09/23 04:58:04;;;;;;;2.55;2.17;;;7.30;99.90;;;;;;2070216;28;20209;-80
2023/09/23 04:59:04;;;;;;;2.25;1.98;;;7.40;99.90;;;;;;2070102;28;20197;-80
2023/09/23 05:00:09;;;;;;;2.53;2.33;;;7.40;99.90;;;;;;2070771;28;20201;-80
2023/09/23 05:01:12;;;;;;;3.35;2.63;;;7.30;99.90;;;;;;2071601;28;20321;-80
2023/09/23 05:02:13;;;;;;;2.67;2.20;;;7.20;99.90;;;;;;2071201;28;20191;-79
2023/09/23 05:03:14;;;;;;;3.97;2.00;;;7.20;99.90;;;;;;2071057;28;20218;-81
2023/09/23 05:04:14;;;;;;;2.73;2.47;;;7.20;99.90;;;;;;2062921;28;20182;-81
2023/09/23 05:05:16;;;;;;;2.90;2.00;;;7.30;99.90;;;;;;2062823;28;20209;-81
2023/09/23 05:06:16;;;;;;;2.53;2.13;;;7.30;99.90;;;;;;2062913;28;20588;-79
2023/09/23 05:07:18;;;;;;;2.40;1.90;;;7.30;99.90;;;;;;2062591;28;20210;-81
2023/09/23 05:08:19;;;;;;;2.00;1.73;;;7.30;99.90;;;;;;2070347;28;20642;-80
2023/09/23 05:09:19;;;;;;;2.20;1.73;;;7.30;99.90;;;;;;2071042;28;20184;-80
2023/09/23 05:10:20;;;;;;;3.53;1.80;;;7.30;99.90;;;;;;2070964;28;20188;-81
2023/09/23 05:11:21;;;;;;;3.07;2.00;;;7.20;99.90;;;;;;2070415;28;20713;-80
2023/09/23 05:12:23;;;;;;;2.00;1.80;;;7.20;99.90;;;;;;2070686;28;20269;-79
2023/09/23 05:13:24;;;;;;;2.58;2.00;;;7.30;99.90;;;;;;2072309;28;20752;-79
2023/09/23 05:14:25;;;;;;;2.07;1.77;;;7.20;99.90;;;;;;2066114;28;20234;-79
2023/09/23 05:15:27;;;;;;;2.77;2.40;;;7.20;99.90;;;;;;2072275;28;20236;-81
2023/09/23 05:16:28;;;;;;;2.70;2.25;;;7.20;99.90;;;;;;2072419;28;20230;-81
2023/09/23 05:17:29;;;;;;;2.65;2.45;;;7.10;99.90;;;;;;2063695;28;20241;-81
2023/09/23 05:18:30;;;;;;;2.92;2.42;;;7.10;99.90;;;;;;2069628;28;20229;-82
2023/09/23 05:19:33;;;;;;;2.20;2.00;;;7.20;99.90;;;;;;2069824;28;20257;-81
2023/09/23 05:20:34;;;;;;;3.03;2.30;;;7.20;99.90;;;;;;2078499;28;20278;-80
2023/09/23 05:21:35;;;;;;;1.87;1.63;;;7.20;99.90;;;;;;2070215;28;20234;-81
2023/09/23 05:22:36;;;;;;;3.35;2.30;;;7.30;99.90;;;;;;2070575;28;20645;-81
2023/09/23 05:23:37;;;;;;;2.37;1.87;;;7.30;99.90;;;;;;2062553;28;20245;-80
2023/09/23 05:24:38;;;;;;;4.25;2.08;;;7.30;99.90;;;;;;2062228;28;20226;-82
2023/09/23 05:25:41;;;;;;;2.00;1.80;;;7.30;99.90;;;;;;2062092;28;20650;-80